Cetus — WDJ5269 — position and weather

sailwx.info

Track history (hours):
 
Tides and Currents Weather Stations Pressure Air Temp Water Temp Dewpoint Dewpoint Depression Visibility Wind Speed Wind Dir Waves Ship Positions

Cetus

Owner: San Francisco Bay Area Water Emergency Transportation Authorithy, San Francisco, CA. More information available from US FCC via Universal Licensing System and Coast Guard Vessel Documentation Center.

Last reported at 2017-Oct-20 04:30 UTC. Time now 2017-Oct-20 05:10 UTC.
Position N 37°49' W 122°25'.

Length 41 m; draft 2 m.

Type: Passenger vessel. MMSI: 367786010.

Date/timePositionNaut miles runAvg speedWind from/ knotsBaromVisibWave heightAir tempDewpointWater temp
2017-Oct-20 04:30N 37°49' W 122°25'0 0.0
2017-Oct-20 04:00N 37°49' W 122°25'5 9.7
2017-Oct-20 03:31N 37°48' W 122°19'1 1.1
2017-Oct-20 03:01N 37°47' W 122°18'2 4.0
2017-Oct-20 02:31N 37°48' W 122°21'2 4.7
2017-Oct-20 02:00N 37°47' W 122°18'5 9.3
2017-Oct-20 01:30N 37°48' W 122°24'510.6
2017-Oct-20 01:00N 37°48' W 122°17'3 5.5
2017-Oct-20 00:31N 37°48' W 122°20'3 5.1
2017-Oct-20 00:00N 37°48' W 122°24'4 8.9
2017-Oct-19 23:30N 37°48' W 122°18'0 0.2
2017-Oct-19 23:00N 37°47' W 122°18'510.9
2017-Oct-19 22:30N 37°49' W 122°25'0 0.0
2017-Oct-19 22:00N 37°49' W 122°25'0 0.0
2017-Oct-19 21:30N 37°49' W 122°25'4 8.3
2017-Oct-19 21:00N 37°48' W 122°20'2 3.1
2017-Oct-19 20:30N 37°47' W 122°18'4 8.7
2017-Oct-19 20:01N 37°48' W 122°23'0 0.6
2017-Oct-19 19:31N 37°48' W 122°23'5 9.5
2017-Oct-19 19:01N 37°48' W 122°17'2 3.7
2017-Oct-19 18:30N 37°48' W 122°20'4 8.1
2017-Oct-19 18:00N 37°49' W 122°25'1 1.7
2017-Oct-19 17:30N 37°48' W 122°24'0 0.0
2017-Oct-19 17:00N 37°48' W 122°24'0 0.9
2017-Oct-19 16:30N 37°48' W 122°24'5 9.2
2017-Oct-19 16:00N 37°47' W 122°18'3 5.4
2017-Oct-19 15:30N 37°48' W 122°21'1 2.7
2017-Oct-19 15:01N 37°48' W 122°19'2 3.4
2017-Oct-19 14:30N 37°48' W 122°17'4 8.9
2017-Oct-19 14:01N 37°48' W 122°23'5 9.7
2017-Oct-19 13:31N 37°48' W 122°17'5 9.6
2017-Oct-19 13:01N 37°48' W 122°23'2 3.1
2017-Oct-19 12:30N 37°49' W 122°25'0 0.0
2017-Oct-19 05:43N 37°49' W 122°25'2 8.5
2017-Oct-19 05:31N 37°48' W 122°23'4 8.0
2017-Oct-19 05:00N 37°48' W 122°18'5 9.3
2017-Oct-19 04:30N 37°48' W 122°24'0 0.0
2017-Oct-19 04:00N 37°48' W 122°24'0 0.0
2017-Oct-19 03:30N 37°48' W 122°24'0 0.0
2017-Oct-19 03:00N 37°48' W 122°24'510.6
2017-Oct-19 02:31N 37°48' W 122°17'5 9.3
2017-Oct-19 02:01N 37°48' W 122°23'4 7.0
2017-Oct-19 01:30N 37°47' W 122°18'0 0.1
2017-Oct-19 01:01N 37°48' W 122°18'3 6.6
2017-Oct-19 00:31N 37°48' W 122°23'4 7.8
2017-Oct-19 00:00N 37°48' W 122°18'5 9.4
2017-Oct-18 23:30N 37°48' W 122°24'5 9.3
2017-Oct-18 23:00N 37°48' W 122°18'1 2.0
2017-Oct-18 22:31N 37°48' W 122°19'5 9.3
2017-Oct-18 22:00N 37°49' W 122°25'0 0.5
2017-Oct-18 21:30N 37°49' W 122°25'0 0.0
2017-Oct-18 21:00N 37°49' W 122°25'0 0.0
2017-Oct-18 20:30N 37°49' W 122°25'0 0.0
2017-Oct-18 20:00N 37°49' W 122°25'0 0.0
2017-Oct-18 19:30N 37°49' W 122°25'0 0.0
2017-Oct-18 19:00N 37°49' W 122°25'0 0.0
2017-Oct-18 18:30N 37°49' W 122°25'0 0.3
2017-Oct-18 18:00N 37°49' W 122°25'0 0.3
2017-Oct-18 17:30N 37°49' W 122°25'1 1.7
2017-Oct-18 17:00N 37°49' W 122°24'5 9.5
2017-Oct-18 16:31N 37°47' W 122°18'0 0.1
2017-Oct-18 16:00N 37°48' W 122°18'3 5.5
2017-Oct-18 15:31N 37°48' W 122°21'3 5.4
2017-Oct-18 15:01N 37°48' W 122°18'1 0.9
2017-Oct-18 14:00N 37°48' W 122°17'4 8.3
2017-Oct-18 13:30N 37°48' W 122°22'3 6.8
2017-Oct-18 13:00N 37°47' W 122°18'2 3.8
2017-Oct-18 12:31N 37°48' W 122°20'4 7.6
2017-Oct-18 12:01N 37°49' W 122°25'0 0.0
2017-Oct-18 04:14N 37°49' W 122°25'0 0.0
2017-Oct-18 04:00N 37°49' W 122°25'1 2.7
2017-Oct-18 03:30N 37°48' W 122°23'5 9.6
2017-Oct-18 03:01N 37°48' W 122°17'5 9.4
2017-Oct-18 02:31N 37°48' W 122°23'5 9.7
2017-Oct-18 02:01N 37°48' W 122°17'5 9.9
2017-Oct-18 01:30N 37°48' W 122°24'510.6
2017-Oct-18 01:00N 37°48' W 122°17'3 6.5
2017-Oct-18 00:31N 37°48' W 122°21'2 4.2
2017-Oct-18 00:00N 37°48' W 122°24'2 3.4
2017-Oct-17 23:31N 37°48' W 122°21'3 5.9
2017-Oct-17 23:00N 37°47' W 122°18'611.4
2017-Oct-17 22:30N 37°49' W 122°25'0 0.0
2017-Oct-17 22:00N 37°49' W 122°25'0 0.0
2017-Oct-17 21:30N 37°49' W 122°25'3 6.5
2017-Oct-17 21:01N 37°48' W 122°21'2 4.9
2017-Oct-17 20:30N 37°47' W 122°18'4 9.0
2017-Oct-17 20:00N 37°48' W 122°23'1 2.6
2017-Oct-17 19:30N 37°49' W 122°25'0 0.0
2017-Oct-17 19:00N 37°49' W 122°25'0 0.0
2017-Oct-17 18:30N 37°49' W 122°25'0 0.3
2017-Oct-17 18:00N 37°49' W 122°25'0 0.3
2017-Oct-17 17:30N 37°49' W 122°25'2 3.7
2017-Oct-17 17:00N 37°48' W 122°23'5 9.2
2017-Oct-17 16:31N 37°48' W 122°17'5 9.2
2017-Oct-17 16:01N 37°47' W 122°23'3 6.9
2017-Oct-17 15:30N 37°48' W 122°18'0 0.4
2017-Oct-17 15:01N 37°48' W 122°19'3 5.9
2017-Oct-17 14:31N 37°47' W 122°22'4 8.6
2017-Oct-17 14:00N 37°48' W 122°17'4 8.8
2017-Oct-17 13:31N 37°48' W 122°22'4 7.4
2017-Oct-17 13:01N 37°47' W 122°18'2 4.0
2017-Oct-17 12:30N 37°48' W 122°20'  
2017-Oct-14 20:44N 37°48' W 122°24'0 0.0
2017-Oct-14 20:30N 37°48' W 122°24'0 0.0
2017-Oct-14 20:00N 37°48' W 122°24'0 0.0
2017-Oct-14 19:30N 37°48' W 122°24'0 0.0
2017-Oct-14 19:00N 37°48' W 122°24'0 0.0
2017-Oct-14 18:30N 37°48' W 122°24'0 0.0
2017-Oct-14 18:00N 37°48' W 122°24'0 0.0
2017-Oct-14 17:30N 37°48' W 122°24'0 0.0
2017-Oct-14 17:00N 37°48' W 122°24'0 0.9
2017-Oct-14 16:30N 37°48' W 122°24'0 0.0
2017-Oct-14 16:00N 37°48' W 122°24'0 0.0
2017-Oct-14 15:30N 37°48' W 122°24'0 0.0
2017-Oct-14 15:00N 37°48' W 122°24'1 2.6
2017-Oct-14 14:30N 37°49' W 122°25'0 0.0
2017-Oct-14 14:00N 37°49' W 122°25'0 0.0
2017-Oct-14 13:30N 37°49' W 122°25'0 0.0
2017-Oct-14 13:00N 37°49' W 122°25'0 0.0
2017-Oct-14 12:30N 37°49' W 122°25'0 0.0
2017-Oct-14 12:00N 37°49' W 122°25'0 0.0
2017-Oct-14 11:30N 37°49' W 122°25'0 0.0
2017-Oct-14 11:00N 37°49' W 122°25'0 0.0
2017-Oct-14 10:31N 37°49' W 122°25'0 0.0
2017-Oct-14 10:00N 37°49' W 122°25'0 0.0
2017-Oct-14 09:30N 37°49' W 122°25'0 0.0
2017-Oct-14 09:00N 37°49' W 122°25'0 0.0
2017-Oct-14 08:31N 37°49' W 122°25'0 0.0
2017-Oct-14 08:01N 37°49' W 122°25'0 0.0
2017-Oct-14 07:30N 37°49' W 122°25'0 0.0
2017-Oct-14 07:00N 37°49' W 122°25'0 0.0
2017-Oct-14 06:30N 37°49' W 122°25'0 0.0
2017-Oct-14 06:00N 37°49' W 122°25'0 0.0
2017-Oct-14 05:30N 37°49' W 122°25'0 0.0
2017-Oct-14 05:00N 37°49' W 122°25'0 0.0
2017-Oct-14 04:30N 37°49' W 122°25'0 0.0
2017-Oct-14 04:00N 37°49' W 122°25'1 2.6
2017-Oct-14 03:30N 37°48' W 122°24'510.6
2017-Oct-14 03:00N 37°48' W 122°17'510.6
2017-Oct-14 02:30N 37°48' W 122°24'510.6
2017-Oct-14 02:00N 37°48' W 122°17'510.4
2017-Oct-14 01:30N 37°48' W 122°23'510.4
2017-Oct-14 01:01N 37°48' W 122°17'3 5.8
2017-Oct-14 00:31N 37°48' W 122°20'2 4.8
2017-Oct-14 00:00N 37°48' W 122°24'1 2.7
2017-Oct-13 23:31N 37°48' W 122°22'3 6.6
2017-Oct-13 23:00N 37°47' W 122°18'611.3
2017-Oct-13 22:30N 37°49' W 122°25'0 0.0
2017-Oct-13 22:01N 37°49' W 122°25'0 0.0
2017-Oct-13 21:30N 37°49' W 122°25'1 2.6
2017-Oct-13 21:00N 37°48' W 122°24'510.6
2017-Oct-13 20:30N 37°48' W 122°17'510.6
2017-Oct-13 20:00N 37°48' W 122°24'1 2.6
2017-Oct-13 19:30N 37°49' W 122°25'0 0.0
2017-Oct-13 19:00N 37°49' W 122°25'0 0.0
2017-Oct-13 18:30N 37°49' W 122°25'0 0.0
2017-Oct-13 18:00N 37°49' W 122°25'0 0.0
2017-Oct-13 17:30N 37°49' W 122°25'0 0.1
2017-Oct-13 17:00N 37°49' W 122°25'5 9.4
2017-Oct-13 16:31N 37°48' W 122°19'1 2.4
2017-Oct-13 16:01N 37°48' W 122°17'3 6.4
2017-Oct-13 15:31N 37°48' W 122°22'2 4.6
2017-Oct-13 15:01N 37°48' W 122°19'4 7.3
2017-Oct-13 14:30N 37°48' W 122°23'510.2
2017-Oct-13 14:01N 37°48' W 122°17'4 8.0
2017-Oct-13 13:30N 37°48' W 122°22'3 6.6
2017-Oct-13 13:01N 37°47' W 122°18'1 2.2
2017-Oct-13 12:30N 37°48' W 122°19'5 9.2
2017-Oct-13 12:00N 37°49' W 122°25'0 0.0
2017-Oct-13 04:09N 37°49' W 122°25'0 0.0
2017-Oct-13 04:00N 37°49' W 122°25'1 2.6
2017-Oct-13 03:30N 37°48' W 122°24'510.5
2017-Oct-13 03:00N 37°48' W 122°17'510.5
2017-Oct-13 02:30N 37°48' W 122°24'510.6
2017-Oct-13 02:00N 37°48' W 122°17'510.5
2017-Oct-13 01:31N 37°48' W 122°23'510.2
2017-Oct-13 01:01N 37°48' W 122°17'3 5.3
2017-Oct-13 00:31N 37°48' W 122°20'3 5.1
2017-Oct-13 00:00N 37°48' W 122°24'2 3.2
2017-Oct-12 23:31N 37°48' W 122°21'3 6.1
2017-Oct-12 23:01N 37°47' W 122°18'611.3
2017-Oct-12 22:30N 37°49' W 122°25'0 0.0
2017-Oct-12 22:00N 37°49' W 122°25'0 0.0
2017-Oct-12 21:30N 37°49' W 122°25'1 0.2
2017-Oct-12 17:46N 37°48' W 122°24'0 1.2
2017-Oct-12 17:30N 37°48' W 122°24'1 1.2
2017-Oct-12 17:00N 37°48' W 122°23'4 8.8
2017-Oct-12 16:30N 37°47' W 122°18'2 4.7
2017-Oct-12 16:01N 37°48' W 122°21'1 1.2
2017-Oct-12 15:31N 37°48' W 122°20'1 2.4
2017-Oct-12 15:01N 37°48' W 122°18'4 7.7
2017-Oct-12 14:31N 37°48' W 122°23'510.3
2017-Oct-12 14:00N 37°48' W 122°17'4 8.4
2017-Oct-12 13:30N 37°48' W 122°22'3 6.9
2017-Oct-12 13:00N 37°47' W 122°18'2 3.0
2017-Oct-12 12:31N 37°48' W 122°20'4 8.3
2017-Oct-12 12:00N 37°49' W 122°25'0 0.0
2017-Oct-12 04:05N 37°49' W 122°25'0 0.0
2017-Oct-12 04:00N 37°49' W 122°25'4 7.7
2017-Oct-12 03:30N 37°48' W 122°20'2 3.8
2017-Oct-12 03:00N 37°47' W 122°18'5 9.2
2017-Oct-12 02:30N 37°48' W 122°24'510.7
2017-Oct-12 02:01N 37°48' W 122°17'510.6
2017-Oct-12 01:30N 37°48' W 122°24'510.7
2017-Oct-12 01:01N 37°48' W 122°17'3 5.4
2017-Oct-12 00:30N 37°48' W 122°20'3 5.2
2017-Oct-12 00:00N 37°48' W 122°24'0 0.7
2017-Oct-11 23:30N 37°48' W 122°23'4 8.7
2017-Oct-11 23:01N 37°47' W 122°18'611.3
2017-Oct-11 22:30N 37°49' W 122°25'0 0.0
2017-Oct-11 22:00N 37°49' W 122°25'0 0.0
2017-Oct-11 21:31N 37°49' W 122°25'0 0.0
2017-Oct-11 21:00N 37°49' W 122°25'0 0.0
2017-Oct-11 20:31N 37°49' W 122°25'0 0.0
2017-Oct-11 20:00N 37°49' W 122°25'0 0.0
2017-Oct-11 19:30N 37°49' W 122°25'0 0.0
2017-Oct-11 19:00N 37°49' W 122°25'0 0.0
2017-Oct-11 18:30N 37°49' W 122°25'0 0.0
2017-Oct-11 18:00N 37°49' W 122°25'0 0.0
2017-Oct-11 17:31N 37°49' W 122°25'1 1.2
2017-Oct-11 17:01N 37°49' W 122°25'2 0.1
2017-Oct-11 00:00N 37°48' W 122°24'3 6.2
2017-Oct-10 23:30N 37°48' W 122°20'2 3.2
2017-Oct-10 23:00N 37°47' W 122°18'611.4
2017-Oct-10 22:30N 37°49' W 122°25'0 0.0
2017-Oct-10 22:00N 37°49' W 122°25'0 0.0
2017-Oct-10 21:31N 37°49' W 122°25'1 2.6
2017-Oct-10 21:01N 37°48' W 122°23'5 9.9
2017-Oct-10 20:30N 37°48' W 122°17'510.1
2017-Oct-10 20:00N 37°48' W 122°24'1 2.6
2017-Oct-10 19:30N 37°49' W 122°25'0 0.0
2017-Oct-10 19:00N 37°49' W 122°25'1 2.6
2017-Oct-10 18:30N 37°48' W 122°24'510.6
2017-Oct-10 18:00N 37°48' W 122°17'510.5
2017-Oct-10 17:30N 37°48' W 122°23'1 1.4
2017-Oct-10 17:01N 37°48' W 122°24'5 9.5
2017-Oct-10 16:30N 37°47' W 122°18'2 3.5
2017-Oct-10 16:01N 37°48' W 122°20'0 0.3
2017-Oct-10 15:31N 37°48' W 122°20'0 0.4
2017-Oct-10 15:01N 37°48' W 122°20'2 2.4
2017-Oct-10 14:00N 37°48' W 122°17'4 8.1
2017-Oct-10 13:30N 37°47' W 122°22'3 6.6
2017-Oct-10 13:00N 37°47' W 122°18'510.5
2017-Oct-10 12:31N 37°49' W 122°24'1 1.1
2017-Oct-10 12:00N 37°49' W 122°25'0 0.0
2017-Oct-10 11:30N 37°49' W 122°25'0 0.0
2017-Oct-10 11:00N 37°49' W 122°25'0 0.0
2017-Oct-10 10:30N 37°49' W 122°25'0 0.0
2017-Oct-10 10:01N 37°49' W 122°25'0 0.0
2017-Oct-10 09:30N 37°49' W 122°25'0 0.0
2017-Oct-10 09:00N 37°49' W 122°25'0 0.0
2017-Oct-10 08:31N 37°49' W 122°25'0 0.0
2017-Oct-10 08:00N 37°49' W 122°25'0 0.0
2017-Oct-10 07:30N 37°49' W 122°25'0 0.0
2017-Oct-10 07:01N 37°49' W 122°25'0 0.0
2017-Oct-10 06:30N 37°49' W 122°25'0 0.0
2017-Oct-10 06:00N 37°49' W 122°25'0 0.0
2017-Oct-10 05:30N 37°49' W 122°25'0 0.0
2017-Oct-10 05:01N 37°49' W 122°25'0 0.0
2017-Oct-10 04:30N 37°49' W 122°25'  
Track history (hours):
 
Tides and Currents Weather Stations Pressure Air Temp Water Temp Dewpoint Dewpoint Depression Visibility Wind Speed Wind Dir Waves Ship Positions

Cetus

Owner: San Francisco Bay Area Water Emergency Transportation Authorithy, San Francisco, CA. More information available from US FCC via Universal Licensing System and Coast Guard Vessel Documentation Center.

Last reported at 2017-Oct-20 04:30 UTC. Time now 2017-Oct-20 05:10 UTC.
Position N 37°49' W 122°25'.

Length 41 m; draft 2 m.

Type: Passenger vessel. MMSI: 367786010.

Date/timePositionNaut miles runAvg speedWind from/ knotsBaromVisibWave heightAir tempDewpointWater temp
2017-Oct-20 04:30N 37°49' W 122°25'0 0.0
2017-Oct-20 04:00N 37°49' W 122°25'5 9.7
2017-Oct-20 03:31N 37°48' W 122°19'1 1.1
2017-Oct-20 03:01N 37°47' W 122°18'2 4.0
2017-Oct-20 02:31N 37°48' W 122°21'2 4.7
2017-Oct-20 02:00N 37°47' W 122°18'5 9.3
2017-Oct-20 01:30N 37°48' W 122°24'510.6
2017-Oct-20 01:00N 37°48' W 122°17'3 5.5
2017-Oct-20 00:31N 37°48' W 122°20'3 5.1
2017-Oct-20 00:00N 37°48' W 122°24'4 8.9
2017-Oct-19 23:30N 37°48' W 122°18'0 0.2
2017-Oct-19 23:00N 37°47' W 122°18'510.9
2017-Oct-19 22:30N 37°49' W 122°25'0 0.0
2017-Oct-19 22:00N 37°49' W 122°25'0 0.0
2017-Oct-19 21:30N 37°49' W 122°25'4 8.3
2017-Oct-19 21:00N 37°48' W 122°20'2 3.1
2017-Oct-19 20:30N 37°47' W 122°18'4 8.7
2017-Oct-19 20:01N 37°48' W 122°23'0 0.6
2017-Oct-19 19:31N 37°48' W 122°23'5 9.5
2017-Oct-19 19:01N 37°48' W 122°17'2 3.7
2017-Oct-19 18:30N 37°48' W 122°20'4 8.1
2017-Oct-19 18:00N 37°49' W 122°25'1 1.7
2017-Oct-19 17:30N 37°48' W 122°24'0 0.0
2017-Oct-19 17:00N 37°48' W 122°24'0 0.9
2017-Oct-19 16:30N 37°48' W 122°24'5 9.2
2017-Oct-19 16:00N 37°47' W 122°18'3 5.4
2017-Oct-19 15:30N 37°48' W 122°21'1 2.7
2017-Oct-19 15:01N 37°48' W 122°19'2 3.4
2017-Oct-19 14:30N 37°48' W 122°17'4 8.9
2017-Oct-19 14:01N 37°48' W 122°23'5 9.7
2017-Oct-19 13:31N 37°48' W 122°17'5 9.6
2017-Oct-19 13:01N 37°48' W 122°23'2 3.1
2017-Oct-19 12:30N 37°49' W 122°25'0 0.0
2017-Oct-19 05:43N 37°49' W 122°25'2 8.5
2017-Oct-19 05:31N 37°48' W 122°23'4 8.0
2017-Oct-19 05:00N 37°48' W 122°18'5 9.3
2017-Oct-19 04:30N 37°48' W 122°24'0 0.0
2017-Oct-19 04:00N 37°48' W 122°24'0 0.0
2017-Oct-19 03:30N 37°48' W 122°24'0 0.0
2017-Oct-19 03:00N 37°48' W 122°24'510.6
2017-Oct-19 02:31N 37°48' W 122°17'5 9.3
2017-Oct-19 02:01N 37°48' W 122°23'4 7.0
2017-Oct-19 01:30N 37°47' W 122°18'0 0.1
2017-Oct-19 01:01N 37°48' W 122°18'3 6.6
2017-Oct-19 00:31N 37°48' W 122°23'4 7.8
2017-Oct-19 00:00N 37°48' W 122°18'5 9.4
2017-Oct-18 23:30N 37°48' W 122°24'5 9.3
2017-Oct-18 23:00N 37°48' W 122°18'1 2.0
2017-Oct-18 22:31N 37°48' W 122°19'5 9.3
2017-Oct-18 22:00N 37°49' W 122°25'0 0.5
2017-Oct-18 21:30N 37°49' W 122°25'0 0.0
2017-Oct-18 21:00N 37°49' W 122°25'0 0.0
2017-Oct-18 20:30N 37°49' W 122°25'0 0.0
2017-Oct-18 20:00N 37°49' W 122°25'0 0.0
2017-Oct-18 19:30N 37°49' W 122°25'0 0.0
2017-Oct-18 19:00N 37°49' W 122°25'0 0.0
2017-Oct-18 18:30N 37°49' W 122°25'0 0.3
2017-Oct-18 18:00N 37°49' W 122°25'0 0.3
2017-Oct-18 17:30N 37°49' W 122°25'1 1.7
2017-Oct-18 17:00N 37°49' W 122°24'5 9.5
2017-Oct-18 16:31N 37°47' W 122°18'0 0.1
2017-Oct-18 16:00N 37°48' W 122°18'3 5.5
2017-Oct-18 15:31N 37°48' W 122°21'3 5.4
2017-Oct-18 15:01N 37°48' W 122°18'1 0.9
2017-Oct-18 14:00N 37°48' W 122°17'4 8.3
2017-Oct-18 13:30N 37°48' W 122°22'3 6.8
2017-Oct-18 13:00N 37°47' W 122°18'2 3.8
2017-Oct-18 12:31N 37°48' W 122°20'4 7.6
2017-Oct-18 12:01N 37°49' W 122°25'0 0.0
2017-Oct-18 04:14N 37°49' W 122°25'0 0.0
2017-Oct-18 04:00N 37°49' W 122°25'1 2.7
2017-Oct-18 03:30N 37°48' W 122°23'5 9.6
2017-Oct-18 03:01N 37°48' W 122°17'5 9.4
2017-Oct-18 02:31N 37°48' W 122°23'5 9.7
2017-Oct-18 02:01N 37°48' W 122°17'5 9.9
2017-Oct-18 01:30N 37°48' W 122°24'510.6
2017-Oct-18 01:00N 37°48' W 122°17'3 6.5
2017-Oct-18 00:31N 37°48' W 122°21'2 4.2
2017-Oct-18 00:00N 37°48' W 122°24'2 3.4
2017-Oct-17 23:31N 37°48' W 122°21'3 5.9
2017-Oct-17 23:00N 37°47' W 122°18'611.4
2017-Oct-17 22:30N 37°49' W 122°25'0 0.0
2017-Oct-17 22:00N 37°49' W 122°25'0 0.0
2017-Oct-17 21:30N 37°49' W 122°25'3 6.5
2017-Oct-17 21:01N 37°48' W 122°21'2 4.9
2017-Oct-17 20:30N 37°47' W 122°18'4 9.0
2017-Oct-17 20:00N 37°48' W 122°23'1 2.6
2017-Oct-17 19:30N 37°49' W 122°25'0 0.0
2017-Oct-17 19:00N 37°49' W 122°25'0 0.0
2017-Oct-17 18:30N 37°49' W 122°25'0 0.3
2017-Oct-17 18:00N 37°49' W 122°25'0 0.3
2017-Oct-17 17:30N 37°49' W 122°25'2 3.7
2017-Oct-17 17:00N 37°48' W 122°23'5 9.2
2017-Oct-17 16:31N 37°48' W 122°17'5 9.2
2017-Oct-17 16:01N 37°47' W 122°23'3 6.9
2017-Oct-17 15:30N 37°48' W 122°18'0 0.4
2017-Oct-17 15:01N 37°48' W 122°19'3 5.9
2017-Oct-17 14:31N 37°47' W 122°22'4 8.6
2017-Oct-17 14:00N 37°48' W 122°17'4 8.8
2017-Oct-17 13:31N 37°48' W 122°22'4 7.4
2017-Oct-17 13:01N 37°47' W 122°18'2 4.0
2017-Oct-17 12:30N 37°48' W 122°20'  
2017-Oct-14 20:44N 37°48' W 122°24'0 0.0
2017-Oct-14 20:30N 37°48' W 122°24'0 0.0
2017-Oct-14 20:00N 37°48' W 122°24'0 0.0
2017-Oct-14 19:30N 37°48' W 122°24'0 0.0
2017-Oct-14 19:00N 37°48' W 122°24'0 0.0
2017-Oct-14 18:30N 37°48' W 122°24'0 0.0
2017-Oct-14 18:00N 37°48' W 122°24'0 0.0
2017-Oct-14 17:30N 37°48' W 122°24'0 0.0
2017-Oct-14 17:00N 37°48' W 122°24'0 0.9
2017-Oct-14 16:30N 37°48' W 122°24'0 0.0
2017-Oct-14 16:00N 37°48' W 122°24'0 0.0
2017-Oct-14 15:30N 37°48' W 122°24'0 0.0
2017-Oct-14 15:00N 37°48' W 122°24'1 2.6
2017-Oct-14 14:30N 37°49' W 122°25'0 0.0
2017-Oct-14 14:00N 37°49' W 122°25'0 0.0
2017-Oct-14 13:30N 37°49' W 122°25'0 0.0
2017-Oct-14 13:00N 37°49' W 122°25'0 0.0
2017-Oct-14 12:30N 37°49' W 122°25'0 0.0
2017-Oct-14 12:00N 37°49' W 122°25'0 0.0
2017-Oct-14 11:30N 37°49' W 122°25'0 0.0
2017-Oct-14 11:00N 37°49' W 122°25'0 0.0
2017-Oct-14 10:31N 37°49' W 122°25'0 0.0
2017-Oct-14 10:00N 37°49' W 122°25'0 0.0
2017-Oct-14 09:30N 37°49' W 122°25'0 0.0
2017-Oct-14 09:00N 37°49' W 122°25'0 0.0
2017-Oct-14 08:31N 37°49' W 122°25'0 0.0
2017-Oct-14 08:01N 37°49' W 122°25'0 0.0
2017-Oct-14 07:30N 37°49' W 122°25'0 0.0
2017-Oct-14 07:00N 37°49' W 122°25'0 0.0
2017-Oct-14 06:30N 37°49' W 122°25'0 0.0
2017-Oct-14 06:00N 37°49' W 122°25'0 0.0
2017-Oct-14 05:30N 37°49' W 122°25'0 0.0
2017-Oct-14 05:00N 37°49' W 122°25'0 0.0
2017-Oct-14 04:30N 37°49' W 122°25'0 0.0
2017-Oct-14 04:00N 37°49' W 122°25'1 2.6
2017-Oct-14 03:30N 37°48' W 122°24'510.6
2017-Oct-14 03:00N 37°48' W 122°17'510.6
2017-Oct-14 02:30N 37°48' W 122°24'510.6
2017-Oct-14 02:00N 37°48' W 122°17'510.4
2017-Oct-14 01:30N 37°48' W 122°23'510.4
2017-Oct-14 01:01N 37°48' W 122°17'3 5.8
2017-Oct-14 00:31N 37°48' W 122°20'2 4.8
2017-Oct-14 00:00N 37°48' W 122°24'1 2.7
2017-Oct-13 23:31N 37°48' W 122°22'3 6.6
2017-Oct-13 23:00N 37°47' W 122°18'611.3
2017-Oct-13 22:30N 37°49' W 122°25'0 0.0
2017-Oct-13 22:01N 37°49' W 122°25'0 0.0
2017-Oct-13 21:30N 37°49' W 122°25'1 2.6
2017-Oct-13 21:00N 37°48' W 122°24'510.6
2017-Oct-13 20:30N 37°48' W 122°17'510.6
2017-Oct-13 20:00N 37°48' W 122°24'1 2.6
2017-Oct-13 19:30N 37°49' W 122°25'0 0.0
2017-Oct-13 19:00N 37°49' W 122°25'0 0.0
2017-Oct-13 18:30N 37°49' W 122°25'0 0.0
2017-Oct-13 18:00N 37°49' W 122°25'0 0.0
2017-Oct-13 17:30N 37°49' W 122°25'0 0.1
2017-Oct-13 17:00N 37°49' W 122°25'5 9.4
2017-Oct-13 16:31N 37°48' W 122°19'1 2.4
2017-Oct-13 16:01N 37°48' W 122°17'3 6.4
2017-Oct-13 15:31N 37°48' W 122°22'2 4.6
2017-Oct-13 15:01N 37°48' W 122°19'4 7.3
2017-Oct-13 14:30N 37°48' W 122°23'510.2
2017-Oct-13 14:01N 37°48' W 122°17'4 8.0
2017-Oct-13 13:30N 37°48' W 122°22'3 6.6
2017-Oct-13 13:01N 37°47' W 122°18'1 2.2
2017-Oct-13 12:30N 37°48' W 122°19'5 9.2
2017-Oct-13 12:00N 37°49' W 122°25'0 0.0
2017-Oct-13 04:09N 37°49' W 122°25'0 0.0
2017-Oct-13 04:00N 37°49' W 122°25'1 2.6
2017-Oct-13 03:30N 37°48' W 122°24'510.5
2017-Oct-13 03:00N 37°48' W 122°17'510.5
2017-Oct-13 02:30N 37°48' W 122°24'510.6
2017-Oct-13 02:00N 37°48' W 122°17'510.5
2017-Oct-13 01:31N 37°48' W 122°23'510.2
2017-Oct-13 01:01N 37°48' W 122°17'3 5.3
2017-Oct-13 00:31N 37°48' W 122°20'3 5.1
2017-Oct-13 00:00N 37°48' W 122°24'2 3.2
2017-Oct-12 23:31N 37°48' W 122°21'3 6.1
2017-Oct-12 23:01N 37°47' W 122°18'611.3
2017-Oct-12 22:30N 37°49' W 122°25'0 0.0
2017-Oct-12 22:00N 37°49' W 122°25'0 0.0
2017-Oct-12 21:30N 37°49' W 122°25'1 0.2
2017-Oct-12 17:46N 37°48' W 122°24'0 1.2
2017-Oct-12 17:30N 37°48' W 122°24'1 1.2
2017-Oct-12 17:00N 37°48' W 122°23'4 8.8
2017-Oct-12 16:30N 37°47' W 122°18'2 4.7
2017-Oct-12 16:01N 37°48' W 122°21'1 1.2
2017-Oct-12 15:31N 37°48' W 122°20'1 2.4
2017-Oct-12 15:01N 37°48' W 122°18'4 7.7
2017-Oct-12 14:31N 37°48' W 122°23'510.3
2017-Oct-12 14:00N 37°48' W 122°17'4 8.4
2017-Oct-12 13:30N 37°48' W 122°22'3 6.9
2017-Oct-12 13:00N 37°47' W 122°18'2 3.0
2017-Oct-12 12:31N 37°48' W 122°20'4 8.3
2017-Oct-12 12:00N 37°49' W 122°25'0 0.0
2017-Oct-12 04:05N 37°49' W 122°25'0 0.0
2017-Oct-12 04:00N 37°49' W 122°25'4 7.7
2017-Oct-12 03:30N 37°48' W 122°20'2 3.8
2017-Oct-12 03:00N 37°47' W 122°18'5 9.2
2017-Oct-12 02:30N 37°48' W 122°24'510.7
2017-Oct-12 02:01N 37°48' W 122°17'510.6
2017-Oct-12 01:30N 37°48' W 122°24'510.7
2017-Oct-12 01:01N 37°48' W 122°17'3 5.4
2017-Oct-12 00:30N 37°48' W 122°20'3 5.2
2017-Oct-12 00:00N 37°48' W 122°24'0 0.7
2017-Oct-11 23:30N 37°48' W 122°23'4 8.7
2017-Oct-11 23:01N 37°47' W 122°18'611.3
2017-Oct-11 22:30N 37°49' W 122°25'0 0.0
2017-Oct-11 22:00N 37°49' W 122°25'0 0.0
2017-Oct-11 21:31N 37°49' W 122°25'0 0.0
2017-Oct-11 21:00N 37°49' W 122°25'0 0.0
2017-Oct-11 20:31N 37°49' W 122°25'0 0.0
2017-Oct-11 20:00N 37°49' W 122°25'0 0.0
2017-Oct-11 19:30N 37°49' W 122°25'0 0.0
2017-Oct-11 19:00N 37°49' W 122°25'0 0.0
2017-Oct-11 18:30N 37°49' W 122°25'0 0.0
2017-Oct-11 18:00N 37°49' W 122°25'0 0.0
2017-Oct-11 17:31N 37°49' W 122°25'1 1.2
2017-Oct-11 17:01N 37°49' W 122°25'2 0.1
2017-Oct-11 00:00N 37°48' W 122°24'3 6.2
2017-Oct-10 23:30N 37°48' W 122°20'2 3.2
2017-Oct-10 23:00N 37°47' W 122°18'611.4
2017-Oct-10 22:30N 37°49' W 122°25'0 0.0
2017-Oct-10 22:00N 37°49' W 122°25'0 0.0
2017-Oct-10 21:31N 37°49' W 122°25'1 2.6
2017-Oct-10 21:01N 37°48' W 122°23'5 9.9
2017-Oct-10 20:30N 37°48' W 122°17'510.1
2017-Oct-10 20:00N 37°48' W 122°24'1 2.6
2017-Oct-10 19:30N 37°49' W 122°25'0 0.0
2017-Oct-10 19:00N 37°49' W 122°25'1 2.6
2017-Oct-10 18:30N 37°48' W 122°24'510.6
2017-Oct-10 18:00N 37°48' W 122°17'510.5
2017-Oct-10 17:30N 37°48' W 122°23'1 1.4
2017-Oct-10 17:01N 37°48' W 122°24'5 9.5
2017-Oct-10 16:30N 37°47' W 122°18'2 3.5
2017-Oct-10 16:01N 37°48' W 122°20'0 0.3
2017-Oct-10 15:31N 37°48' W 122°20'0 0.4
2017-Oct-10 15:01N 37°48' W 122°20'2 2.4
2017-Oct-10 14:00N 37°48' W 122°17'4 8.1
2017-Oct-10 13:30N 37°47' W 122°22'3 6.6
2017-Oct-10 13:00N 37°47' W 122°18'510.5
2017-Oct-10 12:31N 37°49' W 122°24'1 1.1
2017-Oct-10 12:00N 37°49' W 122°25'0 0.0
2017-Oct-10 11:30N 37°49' W 122°25'0 0.0
2017-Oct-10 11:00N 37°49' W 122°25'0 0.0
2017-Oct-10 10:30N 37°49' W 122°25'0 0.0
2017-Oct-10 10:01N 37°49' W 122°25'0 0.0
2017-Oct-10 09:30N 37°49' W 122°25'0 0.0
2017-Oct-10 09:00N 37°49' W 122°25'0 0.0
2017-Oct-10 08:31N 37°49' W 122°25'0 0.0
2017-Oct-10 08:00N 37°49' W 122°25'0 0.0
2017-Oct-10 07:30N 37°49' W 122°25'0 0.0
2017-Oct-10 07:01N 37°49' W 122°25'0 0.0
2017-Oct-10 06:30N 37°49' W 122°25'0 0.0
2017-Oct-10 06:00N 37°49' W 122°25'0 0.0
2017-Oct-10 05:30N 37°49' W 122°25'0 0.0
2017-Oct-10 05:01N 37°49' W 122°25'0 0.0
2017-Oct-10 04:30N 37°49' W 122°25'  

Dump ship's entire track history